Time;durP1;ratioP1;P1;durP2;ratioP2;P2;SDS_P1;SDS_P2;PMS_P1;PMS_P2;Temp;Humidity;BMP_temperature;BMP_pressure;BME280_temperature;BME280_humidity;BME280_pressure;Samples;Min_cycle;Max_cycle;Signal;HPM_P1;HPM_P2
2021/01/23 00:02:21;;;;;;;14.20;10.00;;;;;;;;;;5136833;28;20874;-73
2021/01/23 00:04:49;;;;;;;15.10;10.10;;;;;;;;;;5136720;28;20462;-73
2021/01/23 00:07:16;;;;;;;11.00;8.33;;;;;;;;;;5136406;28;20904;-73
2021/01/23 00:09:43;;;;;;;16.47;8.77;;;;;;;;;;5137069;28;20869;-73
2021/01/23 00:12:11;;;;;;;13.20;9.40;;;;;;;;;;5136758;28;20530;-73
2021/01/23 00:14:38;;;;;;;14.30;10.43;;;;;;;;;;5137013;28;20454;-73
2021/01/23 00:17:06;;;;;;;13.40;10.20;;;;;;;;;;5137255;28;20450;-73
2021/01/23 00:19:34;;;;;;;14.37;8.70;;;;;;;;;;5141078;27;20454;-73
2021/01/23 00:22:02;;;;;;;14.00;10.23;;;;;;;;;;5140936;27;20450;-73
2021/01/23 00:24:29;;;;;;;15.17;9.10;;;;;;;;;;5140947;27;20921;-73
2021/01/23 00:26:56;;;;;;;15.77;9.40;;;;;;;;;;5140245;27;20450;-73
2021/01/23 00:29:24;;;;;;;12.83;7.97;;;;;;;;;;5141138;27;20874;-74
2021/01/23 00:31:51;;;;;;;16.40;8.83;;;;;;;;;;5141021;27;20461;-73
2021/01/23 00:34:19;;;;;;;15.67;8.17;;;;;;;;;;5141589;27;20533;-74
2021/01/23 00:36:47;;;;;;;11.60;7.70;;;;;;;;;;5141165;27;20450;-73
2021/01/23 00:39:15;;;;;;;11.03;7.90;;;;;;;;;;5140961;27;20842;-73
2021/01/23 00:41:44;;;;;;;17.37;9.87;;;;;;;;;;5140795;27;20461;-74
2021/01/23 00:44:11;;;;;;;11.87;8.17;;;;;;;;;;5140879;27;20490;-73
2021/01/23 00:46:39;;;;;;;11.07;7.37;;;;;;;;;;5140225;27;20472;-73
2021/01/23 00:49:06;;;;;;;12.93;7.80;;;;;;;;;;5140326;27;20461;-73
2021/01/23 00:51:34;;;;;;;13.23;8.10;;;;;;;;;;5140690;27;20481;-73
2021/01/23 00:54:02;;;;;;;10.87;7.53;;;;;;;;;;5140292;27;20533;-74
2021/01/23 00:56:29;;;;;;;12.63;7.60;;;;;;;;;;5140241;27;20458;-73
2021/01/23 00:58:57;;;;;;;14.37;8.47;;;;;;;;;;5140662;27;20454;-74
2021/01/23 01:01:24;;;;;;;11.30;8.37;;;;;;;;;;5140132;27;20450;-73
2021/01/23 01:03:51;;;;;;;12.63;7.80;;;;;;;;;;5140261;27;20490;-73
2021/01/23 01:06:19;;;;;;;17.17;11.03;;;;;;;;;;5140223;27;20446;-74
2021/01/23 01:08:46;;;;;;;17.30;9.50;;;;;;;;;;5140792;27;20463;-73
2021/01/23 01:11:14;;;;;;;15.23;8.93;;;;;;;;;;5140143;27;20454;-73
2021/01/23 01:13:42;;;;;;;18.57;9.40;;;;;;;;;;5140419;27;20846;-73
2021/01/23 01:16:09;;;;;;;16.63;9.63;;;;;;;;;;5140689;27;20447;-73
2021/01/23 01:18:36;;;;;;;19.00;9.80;;;;;;;;;;5140473;27;20454;-73
2021/01/23 01:21:04;;;;;;;15.33;9.00;;;;;;;;;;5140642;27;20858;-73
2021/01/23 01:23:31;;;;;;;13.90;8.70;;;;;;;;;;5140253;27;20550;-73
2021/01/23 01:25:59;;;;;;;16.70;9.07;;;;;;;;;;5140372;27;20508;-72
2021/01/23 01:28:27;;;;;;;14.20;7.57;;;;;;;;;;5141077;27;20450;-72
2021/01/23 01:30:54;;;;;;;12.80;9.40;;;;;;;;;;5139759;27;20454;-72
2021/01/23 01:33:22;;;;;;;16.43;9.30;;;;;;;;;;5139471;27;20503;-72
2021/01/23 01:35:49;;;;;;;12.57;8.47;;;;;;;;;;5140196;27;20461;-73
2021/01/23 01:38:17;;;;;;;16.53;10.27;;;;;;;;;;5140046;27;20447;-72
2021/01/23 01:40:44;;;;;;;12.73;7.93;;;;;;;;;;5139744;27;20458;-72
2021/01/23 01:43:12;;;;;;;15.27;8.80;;;;;;;;;;5139944;27;20479;-73
2021/01/23 01:45:40;;;;;;;17.13;8.23;;;;;;;;;;5140112;27;20455;-72
2021/01/23 01:48:11;;;;;;;17.83;9.90;;;;;;;;;;5139237;27;20744;-73
2021/01/23 01:50:39;;;;;;;16.00;8.70;;;;;;;;;;5140123;27;20881;-72
2021/01/23 01:53:06;;;;;;;14.57;9.97;;;;;;;;;;5139972;27;20442;-72
2021/01/23 01:55:34;;;;;;;12.73;8.70;;;;;;;;;;5139791;27;20455;-72
2021/01/23 01:58:02;;;;;;;24.93;9.20;;;;;;;;;;5139380;27;20477;-72
2021/01/23 02:00:30;;;;;;;14.17;8.90;;;;;;;;;;5139722;27;20454;-72
2021/01/23 02:03:17;;;;;;;16.63;10.83;;;;;;;;;;5140049;27;20478;-73
2021/01/23 02:05:48;;;;;;;11.63;7.80;;;;;;;;;;5138814;27;20454;-73
2021/01/23 02:08:21;;;;;;;14.97;9.10;;;;;;;;;;5139193;27;20461;-73
2021/01/23 02:10:55;;;;;;;17.03;9.97;;;;;;;;;;5139210;27;20952;-73
2021/01/23 02:13:27;;;;;;;16.37;9.60;;;;;;;;;;5132301;27;20463;-73
2021/01/23 02:15:59;;;;;;;21.63;9.50;;;;;;;;;;5118465;28;20490;-73
2021/01/23 02:18:29;;;;;;;48.10;12.10;;;;;;;;;;5118532;28;20466;-73
2021/01/23 02:21:15;;;;;;;17.50;9.67;;;;;;;;;;5117233;28;20454;-72
2021/01/23 02:23:45;;;;;;;16.67;9.17;;;;;;;;;;5118391;28;20497;-72
2021/01/23 02:26:15;;;;;;;18.03;10.70;;;;;;;;;;5118495;28;20448;-72
2021/01/23 02:28:52;;;;;;;15.90;10.10;;;;;;;;;;5118275;28;20478;-72
2021/01/23 02:31:21;;;;;;;15.67;10.63;;;;;;;;;;5118459;28;20446;-72
2021/01/23 02:33:50;;;;;;;19.90;10.80;;;;;;;;;;5118302;28;20458;-72
2021/01/23 02:36:18;;;;;;;16.67;9.50;;;;;;;;;;5118002;28;20478;-72
2021/01/23 02:38:46;;;;;;;18.20;11.60;;;;;;;;;;5117987;28;20463;-72
2021/01/23 02:41:14;;;;;;;16.17;10.57;;;;;;;;;;5117413;28;20481;-72
2021/01/23 02:43:43;;;;;;;15.90;11.20;;;;;;;;;;5117445;28;20479;-72
2021/01/23 02:46:10;;;;;;;16.97;10.97;;;;;;;;;;5117958;28;20532;-72
2021/01/23 02:48:40;;;;;;;15.73;10.90;;;;;;;;;;5117705;28;20534;-72
2021/01/23 02:51:09;;;;;;;20.13;11.50;;;;;;;;;;5117774;28;20455;-72
2021/01/23 02:53:38;;;;;;;19.43;12.60;;;;;;;;;;5117893;28;20546;-72
2021/01/23 02:56:09;;;;;;;14.83;9.70;;;;;;;;;;5118267;28;20743;-72
2021/01/23 02:58:36;;;;;;;16.00;11.07;;;;;;;;;;5117794;28;20451;-72
2021/01/23 03:01:05;;;;;;;20.13;10.50;;;;;;;;;;5117339;28;20474;-72
2021/01/23 03:03:33;;;;;;;14.63;10.50;;;;;;;;;;5117991;28;20483;-72
2021/01/23 03:06:05;;;;;;;13.77;9.33;;;;;;;;;;5117604;28;20462;-72
2021/01/23 03:08:33;;;;;;;16.40;9.57;;;;;;;;;;5117805;28;20447;-73
2021/01/23 03:11:00;;;;;;;22.90;11.67;;;;;;;;;;5118160;28;20623;-74
2021/01/23 03:13:28;;;;;;;19.50;11.63;;;;;;;;;;5118014;28;20443;-73
2021/01/23 03:15:55;;;;;;;15.10;11.53;;;;;;;;;;5117550;28;20495;-73
2021/01/23 03:18:23;;;;;;;16.17;11.23;;;;;;;;;;5117707;28;20447;-73
2021/01/23 03:20:51;;;;;;;18.30;9.87;;;;;;;;;;5117261;28;20470;-73
2021/01/23 03:23:20;;;;;;;19.10;11.50;;;;;;;;;;5117055;28;20488;-73
2021/01/23 03:25:47;;;;;;;17.73;11.30;;;;;;;;;;5117462;28;20468;-73
2021/01/23 03:28:14;;;;;;;15.53;10.40;;;;;;;;;;5117224;28;20450;-73
2021/01/23 03:30:43;;;;;;;15.13;10.57;;;;;;;;;;5116649;28;20459;-73
2021/01/23 03:33:10;;;;;;;18.57;12.13;;;;;;;;;;5117001;28;20688;-73
2021/01/23 03:35:37;;;;;;;16.50;11.40;;;;;;;;;;5118236;28;20450;-73
2021/01/23 03:38:05;;;;;;;17.10;11.60;;;;;;;;;;5117317;28;20448;-72
2021/01/23 03:40:33;;;;;;;18.73;10.80;;;;;;;;;;5117407;28;20455;-72
2021/01/23 03:43:01;;;;;;;17.03;11.43;;;;;;;;;;5116826;28;20494;-73
2021/01/23 03:45:28;;;;;;;18.20;11.37;;;;;;;;;;5116156;28;20459;-72
2021/01/23 03:47:56;;;;;;;17.20;10.47;;;;;;;;;;5117435;28;20760;-73
2021/01/23 03:50:23;;;;;;;18.07;11.73;;;;;;;;;;5116604;28;20723;-72
2021/01/23 03:52:51;;;;;;;19.60;11.57;;;;;;;;;;5116477;28;20473;-72
2021/01/23 03:55:18;;;;;;;20.93;11.13;;;;;;;;;;5117193;28;20753;-72
2021/01/23 03:57:46;;;;;;;19.17;12.00;;;;;;;;;;5117185;28;20460;-73
2021/01/23 04:00:14;;;;;;;16.70;10.73;;;;;;;;;;5117153;28;20458;-72
2021/01/23 04:02:42;;;;;;;20.60;12.07;;;;;;;;;;5117246;28;20476;-73
2021/01/23 04:05:10;;;;;;;18.60;11.77;;;;;;;;;;5117067;28;20454;-72
2021/01/23 04:07:38;;;;;;;22.20;11.17;;;;;;;;;;5117055;28;20459;-72
2021/01/23 04:10:06;;;;;;;22.43;12.77;;;;;;;;;;5117052;28;20512;-72
2021/01/23 04:12:33;;;;;;;16.47;11.33;;;;;;;;;;5117163;28;20511;-72
2021/01/23 04:15:02;;;;;;;18.93;11.80;;;;;;;;;;5117160;28;20455;-73
2021/01/23 04:17:29;;;;;;;19.10;12.60;;;;;;;;;;5116869;28;20701;-72
2021/01/23 04:19:57;;;;;;;25.00;13.57;;;;;;;;;;5116712;28;20999;-72
2021/01/23 04:22:34;;;;;;;;;;;;;;;;;;;;;
2021/01/23 04:25:01;;;;;;;21.43;12.50;;;;;;;;;;5117187;28;20512;-73
2021/01/23 04:27:29;;;;;;;20.13;11.90;;;;;;;;;;5116712;28;20466;-73
2021/01/23 04:29:56;;;;;;;20.63;11.30;;;;;;;;;;5116502;28;20447;-73
2021/01/23 04:32:24;;;;;;;18.33;12.10;;;;;;;;;;5116885;28;20455;-72
2021/01/23 04:34:52;;;;;;;18.03;12.03;;;;;;;;;;5117282;28;20929;-72
2021/01/23 04:37:20;;;;;;;22.47;12.40;;;;;;;;;;5116288;28;20459;-73
2021/01/23 04:39:47;;;;;;;22.50;15.43;;;;;;;;;;5116090;28;20516;-72
2021/01/23 04:42:15;;;;;;;22.23;11.87;;;;;;;;;;5116847;28;20466;-72
2021/01/23 04:44:42;;;;;;;18.37;12.10;;;;;;;;;;5116518;28;20483;-72
2021/01/23 04:47:09;;;;;;;20.97;12.13;;;;;;;;;;5116290;28;20474;-72
2021/01/23 04:49:38;;;;;;;21.40;11.33;;;;;;;;;;5116363;28;20451;-72
2021/01/23 04:52:06;;;;;;;15.83;11.80;;;;;;;;;;5116291;28;20805;-72
2021/01/23 04:54:34;;;;;;;18.83;12.67;;;;;;;;;;5116720;28;20447;-73
2021/01/23 04:57:02;;;;;;;25.37;13.20;;;;;;;;;;5116490;28;20459;-73
2021/01/23 04:59:30;;;;;;;19.53;11.73;;;;;;;;;;5116527;28;20448;-73
2021/01/23 05:02:19;;;;;;;20.20;12.03;;;;;;;;;;5116546;28;20591;-73
2021/01/23 05:04:48;;;;;;;22.47;14.30;;;;;;;;;;5117114;28;20483;-72
2021/01/23 05:07:25;;;;;;;19.53;11.70;;;;;;;;;;5120091;28;20449;-72
2021/01/23 05:09:52;;;;;;;18.33;12.20;;;;;;;;;;5119821;28;20445;-73
2021/01/23 05:12:33;;;;;;;19.57;11.90;;;;;;;;;;5120157;28;20450;-72
2021/01/23 05:15:01;;;;;;;23.73;12.30;;;;;;;;;;5120089;28;20447;-72
2021/01/23 05:17:28;;;;;;;21.90;12.43;;;;;;;;;;5120062;28;20466;-73
2021/01/23 05:19:57;;;;;;;20.30;12.27;;;;;;;;;;5119600;28;20486;-72
2021/01/23 05:22:25;;;;;;;19.30;11.93;;;;;;;;;;5120033;28;20802;-72
2021/01/23 05:24:53;;;;;;;22.87;13.50;;;;;;;;;;5119709;28;20483;-72
2021/01/23 05:27:20;;;;;;;25.07;13.40;;;;;;;;;;5120525;28;20475;-72
2021/01/23 05:29:54;;;;;;;25.97;12.90;;;;;;;;;;5120133;28;20447;-73
2021/01/23 05:32:22;;;;;;;16.53;11.50;;;;;;;;;;5119148;28;20459;-73
2021/01/23 05:34:49;;;;;;;19.57;12.13;;;;;;;;;;5120253;28;20443;-72
2021/01/23 05:37:31;;;;;;;22.80;12.67;;;;;;;;;;5119786;28;20455;-72
2021/01/23 05:39:59;;;;;;;21.57;12.43;;;;;;;;;;5116478;28;20467;-73
2021/01/23 05:42:27;;;;;;;27.83;13.33;;;;;;;;;;5118848;28;20837;-72
2021/01/23 05:45:13;;;;;;;21.43;11.90;;;;;;;;;;5119331;28;20768;-73
2021/01/23 05:47:41;;;;;;;19.60;12.03;;;;;;;;;;5118832;28;20471;-73
2021/01/23 05:50:10;;;;;;;23.90;14.40;;;;;;;;;;5118866;28;20455;-73
2021/01/23 05:52:37;;;;;;;22.87;13.03;;;;;;;;;;5119068;27;20455;-73
2021/01/23 05:55:06;;;;;;;21.77;13.27;;;;;;;;;;5119203;28;20448;-73
2021/01/23 05:57:34;;;;;;;24.53;14.47;;;;;;;;;;5119738;28;20864;-73
2021/01/23 06:00:03;;;;;;;24.70;14.73;;;;;;;;;;5118435;28;20474;-73
2021/01/23 06:02:30;;;;;;;20.83;13.97;;;;;;;;;;5118953;28;20455;-73
2021/01/23 06:04:58;;;;;;;26.53;13.93;;;;;;;;;;5118320;28;20487;-73
2021/01/23 06:07:47;;;;;;;19.20;13.10;;;;;;;;;;5118499;28;20455;-73
2021/01/23 06:10:32;;;;;;;23.93;13.20;;;;;;;;;;5118466;28;20458;-73
2021/01/23 06:13:04;;;;;;;22.73;12.50;;;;;;;;;;5108381;28;20482;-73
2021/01/23 06:15:36;;;;;;;35.10;14.03;;;;;;;;;;5118290;28;20502;-73
2021/01/23 06:18:04;;;;;;;27.57;14.77;;;;;;;;;;5118012;28;20450;-73
2021/01/23 06:20:55;;;;;;;27.97;14.43;;;;;;;;;;5117583;28;20443;-73
2021/01/23 06:23:22;;;;;;;25.53;14.50;;;;;;;;;;5102683;28;20494;-73
2021/01/23 06:26:02;;;;;;;26.57;15.17;;;;;;;;;;5117987;28;20439;-73
2021/01/23 06:28:48;;;;;;;24.20;13.93;;;;;;;;;;5117906;28;20904;-73
2021/01/23 06:31:37;;;;;;;26.23;14.50;;;;;;;;;;5117756;28;20897;-73
2021/01/23 06:34:24;;;;;;;23.07;14.07;;;;;;;;;;5117721;28;20856;-73
2021/01/23 06:37:15;;;;;;;25.30;16.00;;;;;;;;;;5117868;28;20519;-73
2021/01/23 06:40:01;;;;;;;26.83;15.27;;;;;;;;;;5117445;28;20461;-73
2021/01/23 06:42:43;;;;;;;30.87;17.80;;;;;;;;;;5117517;28;20470;-75
2021/01/23 06:45:11;;;;;;;31.13;16.07;;;;;;;;;;5104650;28;20567;-73
2021/01/23 06:47:40;;;;;;;28.20;17.30;;;;;;;;;;5117568;28;20542;-72
2021/01/23 06:50:11;;;;;;;32.57;17.20;;;;;;;;;;5117488;28;20844;-72
2021/01/23 06:52:48;;;;;;;26.47;15.50;;;;;;;;;;5117671;28;20459;-72
2021/01/23 06:55:16;;;;;;;25.93;16.40;;;;;;;;;;5117666;28;20451;-73
2021/01/23 06:57:47;;;;;;;28.90;16.27;;;;;;;;;;5117713;28;20467;-72
2021/01/23 07:00:15;;;;;;;36.90;17.50;;;;;;;;;;5117540;28;20451;-72
2021/01/23 07:02:43;;;;;;;24.30;15.20;;;;;;;;;;5117606;28;20466;-73
2021/01/23 07:05:11;;;;;;;33.90;17.20;;;;;;;;;;5116987;28;20475;-72
2021/01/23 07:07:38;;;;;;;30.17;16.00;;;;;;;;;;5117231;28;20463;-73
2021/01/23 07:10:06;;;;;;;30.50;17.00;;;;;;;;;;5117323;28;20443;-73
2021/01/23 07:12:35;;;;;;;32.40;18.30;;;;;;;;;;5117990;28;20459;-73
2021/01/23 07:15:03;;;;;;;37.17;17.00;;;;;;;;;;5116836;28;20684;-73
2021/01/23 07:17:34;;;;;;;34.03;19.70;;;;;;;;;;5117043;28;20570;-72
2021/01/23 07:20:08;;;;;;;31.87;17.23;;;;;;;;;;5116827;28;20862;-73
2021/01/23 07:22:35;;;;;;;27.57;16.07;;;;;;;;;;5116499;28;20459;-72
2021/01/23 07:25:04;;;;;;;31.43;17.27;;;;;;;;;;5116623;28;20483;-73
2021/01/23 07:27:31;;;;;;;31.93;18.03;;;;;;;;;;5116329;28;20467;-73
2021/01/23 07:29:59;;;;;;;32.33;16.23;;;;;;;;;;5114928;28;20750;-73
2021/01/23 07:32:36;;;;;;;28.67;17.60;;;;;;;;;;5116552;28;20455;-73
2021/01/23 07:35:04;;;;;;;30.07;17.80;;;;;;;;;;5117113;28;20876;-73
2021/01/23 07:37:42;;;;;;;39.70;17.97;;;;;;;;;;5116624;28;20859;-73
2021/01/23 07:40:10;;;;;;;31.63;17.57;;;;;;;;;;5115803;28;20882;-73
2021/01/23 07:42:39;;;;;;;30.23;16.90;;;;;;;;;;5116586;28;20754;-72
2021/01/23 07:45:07;;;;;;;31.97;17.83;;;;;;;;;;5115655;28;20509;-73
2021/01/23 07:47:35;;;;;;;28.57;16.87;;;;;;;;;;5114957;28;20706;-73
2021/01/23 07:50:09;;;;;;;41.40;19.73;;;;;;;;;;5114910;28;20459;-72
2021/01/23 07:52:36;;;;;;;28.57;17.33;;;;;;;;;;5115689;28;20455;-72
2021/01/23 07:55:09;;;;;;;27.17;16.60;;;;;;;;;;5116056;28;20524;-72
2021/01/23 07:57:36;;;;;;;38.03;18.87;;;;;;;;;;5116221;28;20474;-73
2021/01/23 08:00:05;;;;;;;28.63;18.73;;;;;;;;;;5128253;28;20458;-75
2021/01/23 08:02:50;;;;;;;39.73;19.00;;;;;;;;;;5136760;28;20854;-74
2021/01/23 08:05:17;;;;;;;37.13;18.70;;;;;;;;;;5136615;28;20488;-73
2021/01/23 08:07:45;;;;;;;34.80;18.13;;;;;;;;;;5136502;28;20462;-73
2021/01/23 08:10:15;;;;;;;36.30;20.23;;;;;;;;;;5136434;28;20450;-73
2021/01/23 08:12:43;;;;;;;30.30;19.67;;;;;;;;;;5136650;28;20811;-73
2021/01/23 08:15:11;;;;;;;30.57;19.03;;;;;;;;;;5137209;28;20443;-73
2021/01/23 08:17:39;;;;;;;35.40;19.80;;;;;;;;;;5136317;28;20462;-74
2021/01/23 08:20:07;;;;;;;32.20;18.83;;;;;;;;;;5135309;28;20457;-73
2021/01/23 08:22:34;;;;;;;38.70;20.23;;;;;;;;;;5136090;28;20464;-75
2021/01/23 08:25:22;;;;;;;33.40;17.77;;;;;;;;;;5137004;28;20909;-73
2021/01/23 08:27:49;;;;;;;36.20;20.07;;;;;;;;;;5136140;28;20885;-73
2021/01/23 08:30:17;;;;;;;38.23;20.47;;;;;;;;;;5136540;28;20438;-73
2021/01/23 08:32:45;;;;;;;38.33;20.87;;;;;;;;;;5134652;28;20455;-74
2021/01/23 08:35:12;;;;;;;36.57;19.67;;;;;;;;;;5135896;28;20905;-74
2021/01/23 08:37:40;;;;;;;41.40;22.80;;;;;;;;;;5137255;28;20473;-73
2021/01/23 08:40:08;;;;;;;33.00;17.77;;;;;;;;;;5137322;27;20792;-73
2021/01/23 08:42:36;;;;;;;35.83;19.80;;;;;;;;;;5137238;27;20560;-73
2021/01/23 08:45:04;;;;;;;33.10;19.17;;;;;;;;;;5120076;28;20482;-73
2021/01/23 08:47:32;;;;;;;31.23;20.20;;;;;;;;;;5119657;28;20455;-72
2021/01/23 08:49:59;;;;;;;33.67;18.67;;;;;;;;;;5119235;28;20459;-73
2021/01/23 08:52:27;;;;;;;33.67;18.43;;;;;;;;;;5119486;28;20745;-73
2021/01/23 08:54:54;;;;;;;35.50;20.47;;;;;;;;;;5119204;28;20443;-73
2021/01/23 08:57:21;;;;;;;40.97;19.83;;;;;;;;;;5119770;28;20459;-73
2021/01/23 08:59:50;;;;;;;40.00;20.90;;;;;;;;;;5122504;27;20727;-73
2021/01/23 09:02:18;;;;;;;37.03;20.10;;;;;;;;;;5135195;27;20491;-73
2021/01/23 09:04:47;;;;;;;46.23;21.87;;;;;;;;;;5140123;27;20478;-73
2021/01/23 09:07:15;;;;;;;28.37;17.90;;;;;;;;;;5140089;27;20786;-73
2021/01/23 09:09:42;;;;;;;35.20;21.00;;;;;;;;;;5138712;27;20471;-73
2021/01/23 09:12:10;;;;;;;36.93;20.63;;;;;;;;;;5139499;27;20469;-73
2021/01/23 09:14:38;;;;;;;38.43;17.67;;;;;;;;;;5139603;27;20445;-73
2021/01/23 09:17:07;;;;;;;37.13;20.47;;;;;;;;;;5139585;27;20466;-73
2021/01/23 09:19:34;;;;;;;32.83;19.90;;;;;;;;;;5140226;27;20729;-73
2021/01/23 09:22:01;;;;;;;30.70;19.07;;;;;;;;;;5139229;27;20466;-73
2021/01/23 09:24:29;;;;;;;38.60;19.97;;;;;;;;;;5139626;27;20482;-73
2021/01/23 09:26:56;;;;;;;37.90;21.83;;;;;;;;;;5139436;27;20454;-73
2021/01/23 09:29:23;;;;;;;32.97;17.47;;;;;;;;;;5139635;27;20869;-73
2021/01/23 09:31:51;;;;;;;36.77;21.20;;;;;;;;;;5138942;27;20507;-73
2021/01/23 09:34:19;;;;;;;34.87;18.43;;;;;;;;;;5138599;27;20855;-72
2021/01/23 09:36:47;;;;;;;36.27;18.80;;;;;;;;;;5136522;27;21028;-74
2021/01/23 09:39:14;;;;;;;31.80;19.07;;;;;;;;;;5138844;27;20541;-73
2021/01/23 09:41:42;;;;;;;30.57;19.63;;;;;;;;;;5124461;27;20519;-73
2021/01/23 09:44:10;;;;;;;33.47;18.00;;;;;;;;;;5127164;27;20479;-73
2021/01/23 09:46:37;;;;;;;33.43;19.50;;;;;;;;;;5129551;27;20458;-73
2021/01/23 09:49:05;;;;;;;31.47;19.20;;;;;;;;;;5120966;27;20693;-73
2021/01/23 09:51:33;;;;;;;29.37;18.20;;;;;;;;;;5120482;27;20458;-73
2021/01/23 09:54:01;;;;;;;35.43;21.80;;;;;;;;;;5118143;27;20447;-73
2021/01/23 09:56:29;;;;;;;29.53;17.43;;;;;;;;;;5123460;27;20459;-73
2021/01/23 09:58:56;;;;;;;35.07;19.47;;;;;;;;;;5118252;28;20479;-73
2021/01/23 10:01:23;;;;;;;30.20;18.53;;;;;;;;;;5136928;27;20533;-73
2021/01/23 10:03:53;;;;;;;27.27;18.07;;;;;;;;;;5138148;27;20490;-72
2021/01/23 10:06:20;;;;;;;35.57;18.73;;;;;;;;;;5130805;27;20443;-72
2021/01/23 10:08:48;;;;;;;36.13;19.57;;;;;;;;;;5131367;27;20447;-72
2021/01/23 10:11:16;;;;;;;36.53;18.67;;;;;;;;;;5118312;27;20719;-72
2021/01/23 10:13:43;;;;;;;38.63;18.87;;;;;;;;;;5123122;27;21731;-72
2021/01/23 10:16:15;;;;;;;28.20;16.20;;;;;;;;;;5124670;27;21001;-73
2021/01/23 10:18:42;;;;;;;30.33;17.60;;;;;;;;;;5122786;27;20503;-72
2021/01/23 10:21:10;;;;;;;37.43;19.00;;;;;;;;;;5129783;27;20503;-72
2021/01/23 10:23:40;;;;;;;31.60;17.67;;;;;;;;;;5126146;27;20489;-73
2021/01/23 10:26:11;;;;;;;34.80;18.57;;;;;;;;;;5129172;27;20810;-72
2021/01/23 10:28:45;;;;;;;29.90;19.50;;;;;;;;;;5125545;27;20446;-71
2021/01/23 10:31:35;;;;;;;;;;;;;;;;;;;;;
2021/01/23 10:34:09;;;;;;;30.07;19.33;;;;;;;;;;5126332;27;20446;-72
2021/01/23 10:36:42;;;;;;;31.00;19.60;;;;;;;;;;5119885;27;20463;-71
2021/01/23 10:39:16;;;;;;;35.57;20.67;;;;;;;;;;5131736;27;20973;-72
2021/01/23 10:41:46;;;;;;;31.43;19.10;;;;;;;;;;5124876;27;20459;-73
2021/01/23 10:44:14;;;;;;;29.33;17.33;;;;;;;;;;5117790;27;20517;-71
2021/01/23 10:47:04;;;;;;;;;;;;;;;;;;;;;
2021/01/23 10:49:37;;;;;;;27.83;17.10;;;;;;;;;;5113496;28;20455;-71
2021/01/23 10:52:07;;;;;;;25.60;18.07;;;;;;;;;;5118612;28;20871;-72
2021/01/23 10:54:35;;;;;;;34.13;17.70;;;;;;;;;;5117441;28;20455;-72
2021/01/23 10:57:08;;;;;;;26.10;16.53;;;;;;;;;;5119429;28;20447;-73
2021/01/23 10:59:37;;;;;;;28.20;17.27;;;;;;;;;;5116863;28;20467;-73
2021/01/23 11:02:10;;;;;;;29.17;16.67;;;;;;;;;;5117849;27;20458;-73
2021/01/23 11:04:37;;;;;;;35.67;19.47;;;;;;;;;;5130159;27;20535;-72
2021/01/23 11:07:16;;;;;;;28.00;17.20;;;;;;;;;;5130322;27;20439;-73
2021/01/23 11:09:44;;;;;;;28.70;18.20;;;;;;;;;;5126781;27;20465;-74
2021/01/23 11:12:14;;;;;;;34.07;17.43;;;;;;;;;;5120638;27;20463;-72
2021/01/23 11:14:50;;;;;;;33.70;18.47;;;;;;;;;;5125687;27;20517;-72
2021/01/23 11:17:28;;;;;;;32.53;16.73;;;;;;;;;;5127743;27;20459;-71
2021/01/23 11:20:09;;;;;;;33.93;17.23;;;;;;;;;;5127020;27;20459;-72
2021/01/23 11:22:38;;;;;;;30.77;17.00;;;;;;;;;;5118898;27;20530;-71
2021/01/23 11:25:10;;;;;;;29.83;17.27;;;;;;;;;;5131485;27;20478;-72
2021/01/23 11:27:55;;;;;;;24.03;14.60;;;;;;;;;;5131502;27;20491;-72
2021/01/23 11:30:25;;;;;;;26.70;15.30;;;;;;;;;;5133135;27;20869;-71
2021/01/23 11:33:22;;;;;;;25.13;14.70;;;;;;;;;;5136691;27;20451;-71
2021/01/23 11:35:56;;;;;;;24.47;14.83;;;;;;;;;;5119204;27;20537;-71
2021/01/23 11:38:28;;;;;;;22.70;13.13;;;;;;;;;;5126520;27;20451;-71
2021/01/23 11:40:58;;;;;;;19.93;13.47;;;;;;;;;;5115830;27;20436;-71
2021/01/23 11:43:36;;;;;;;23.10;15.70;;;;;;;;;;5126228;27;20574;-71
2021/01/23 11:46:08;;;;;;;22.80;13.77;;;;;;;;;;5124827;27;20452;-71
2021/01/23 11:48:47;;;;;;;21.33;11.90;;;;;;;;;;5129189;27;20450;-72
2021/01/23 11:51:17;;;;;;;26.27;12.57;;;;;;;;;;5118916;28;20501;-72
2021/01/23 11:53:49;;;;;;;19.40;11.90;;;;;;;;;;5135726;28;20435;-72
2021/01/23 11:56:20;;;;;;;17.60;12.50;;;;;;;;;;5133890;28;20494;-72
2021/01/23 11:58:51;;;;;;;23.70;10.50;;;;;;;;;;5117366;27;20448;-74
2021/01/23 12:01:19;;;;;;;20.43;9.80;;;;;;;;;;5131154;28;20521;-72
2021/01/23 12:03:47;;;;;;;17.23;10.00;;;;;;;;;;5118776;28;20517;-72
2021/01/23 12:06:15;;;;;;;15.90;10.17;;;;;;;;;;5116111;28;20459;-71
2021/01/23 12:08:42;;;;;;;15.00;8.83;;;;;;;;;;5116036;28;20520;-72
2021/01/23 12:11:10;;;;;;;21.47;9.83;;;;;;;;;;5125631;28;20879;-71
2021/01/23 12:16:39;;;;;;;19.07;9.70;;;;;;;;;;5119656;27;21042;-72
2021/01/23 12:19:16;;;;;;;14.73;9.10;;;;;;;;;;5125842;27;20521;-72
2021/01/23 12:21:55;;;;;;;18.67;10.00;;;;;;;;;;5126518;27;20542;-72
2021/01/23 12:24:33;;;;;;;14.40;8.63;;;;;;;;;;5129689;27;20483;-72
2021/01/23 12:27:02;;;;;;;13.63;7.23;;;;;;;;;;5140018;27;20906;-72
2021/01/23 12:29:40;;;;;;;15.00;8.60;;;;;;;;;;5136377;27;20499;-74
2021/01/23 12:32:10;;;;;;;14.60;6.90;;;;;;;;;;5119685;28;20446;-72
2021/01/23 12:37:28;;;;;;;11.77;6.77;;;;;;;;;;5140689;27;20457;-72
2021/01/23 12:40:17;;;;;;;8.00;5.37;;;;;;;;;;5138266;27;20457;-73
2021/01/23 12:42:52;;;;;;;12.43;5.73;;;;;;;;;;5138681;27;20467;-73
2021/01/23 12:45:33;;;;;;;13.93;7.17;;;;;;;;;;5127024;27;20536;-72
2021/01/23 12:48:06;;;;;;;12.30;6.63;;;;;;;;;;5119714;27;20469;-72
2021/01/23 12:50:38;;;;;;;12.20;6.93;;;;;;;;;;5130114;27;20458;-72
2021/01/23 12:53:17;;;;;;;9.67;6.30;;;;;;;;;;5123446;27;20522;-72
2021/01/23 12:55:45;;;;;;;10.80;5.90;;;;;;;;;;5120617;27;20463;-76
2021/01/23 12:58:14;;;;;;;7.67;6.00;;;;;;;;;;5119749;28;20458;-72
2021/01/23 13:00:52;;;;;;;10.03;6.60;;;;;;;;;;5118643;28;20441;-72
2021/01/23 13:03:21;;;;;;;10.83;6.80;;;;;;;;;;5118953;28;20464;-71
2021/01/23 13:05:50;;;;;;;12.10;7.27;;;;;;;;;;5135154;27;20486;-71
2021/01/23 13:08:18;;;;;;;12.97;6.43;;;;;;;;;;5138936;27;20517;-72
2021/01/23 13:10:53;;;;;;;9.93;5.47;;;;;;;;;;5139495;27;20453;-72
2021/01/23 13:13:24;;;;;;;9.20;5.80;;;;;;;;;;5135428;27;20795;-75
2021/01/23 13:15:52;;;;;;;12.20;6.27;;;;;;;;;;5138868;27;20434;-74
2021/01/23 13:18:19;;;;;;;9.90;6.80;;;;;;;;;;5139185;27;20449;-74
2021/01/23 13:21:04;;;;;;;22.23;12.30;;;;;;;;;;5129637;27;20443;-72
2021/01/23 13:23:31;;;;;;;9.77;5.80;;;;;;;;;;5139543;27;20561;-74
2021/01/23 13:25:59;;;;;;;11.10;6.00;;;;;;;;;;5137579;27;20536;-74
2021/01/23 13:28:26;;;;;;;12.90;5.53;;;;;;;;;;5132064;27;20818;-73
2021/01/23 13:31:04;;;;;;;9.93;6.17;;;;;;;;;;5125671;27;20464;-73
2021/01/23 13:33:32;;;;;;;10.10;6.47;;;;;;;;;;5119268;27;20447;-73
2021/01/23 13:36:00;;;;;;;9.57;5.30;;;;;;;;;;5130008;27;20738;-73
2021/01/23 13:38:28;;;;;;;11.20;5.30;;;;;;;;;;5126104;27;20739;-73
2021/01/23 13:40:58;;;;;;;10.10;5.50;;;;;;;;;;5124917;27;20543;-72
2021/01/23 13:43:25;;;;;;;8.47;5.23;;;;;;;;;;5118777;27;20454;-73
2021/01/23 13:45:53;;;;;;;10.00;5.43;;;;;;;;;;5137768;27;20470;-73
2021/01/23 13:48:20;;;;;;;10.10;5.43;;;;;;;;;;5138071;27;20446;-73
2021/01/23 13:50:48;;;;;;;8.13;4.97;;;;;;;;;;5130611;27;20524;-73
2021/01/23 13:53:16;;;;;;;8.17;4.90;;;;;;;;;;5138390;27;20446;-73
2021/01/23 13:55:44;;;;;;;8.13;6.00;;;;;;;;;;5138559;27;20455;-73
2021/01/23 13:58:11;;;;;;;8.90;4.17;;;;;;;;;;5133202;27;20512;-73
2021/01/23 14:00:39;;;;;;;10.67;5.20;;;;;;;;;;5118187;28;20462;-73
2021/01/23 14:03:07;;;;;;;12.50;5.17;;;;;;;;;;5117284;28;20516;-73
2021/01/23 14:05:34;;;;;;;12.47;5.30;;;;;;;;;;5118230;28;20487;-73
2021/01/23 14:08:01;;;;;;;6.43;4.10;;;;;;;;;;5118494;27;20453;-73
2021/01/23 14:10:30;;;;;;;11.03;4.87;;;;;;;;;;5116639;28;20472;-73
2021/01/23 14:12:57;;;;;;;8.07;4.23;;;;;;;;;;5117704;28;20774;-73
2021/01/23 14:15:25;;;;;;;7.43;5.00;;;;;;;;;;5117190;28;20465;-72
2021/01/23 14:17:53;;;;;;;6.87;3.97;;;;;;;;;;5115825;27;20527;-73
2021/01/23 14:20:30;;;;;;;8.13;5.87;;;;;;;;;;5143023;27;20750;-74
2021/01/23 14:22:58;;;;;;;8.90;4.50;;;;;;;;;;5128324;27;20458;-73
2021/01/23 14:25:27;;;;;;;12.53;5.50;;;;;;;;;;5116815;28;20487;-74
2021/01/23 14:27:55;;;;;;;7.70;4.33;;;;;;;;;;5122940;27;20458;-74
2021/01/23 14:30:28;;;;;;;8.23;5.07;;;;;;;;;;5127976;27;20475;-74
2021/01/23 14:32:56;;;;;;;10.30;4.80;;;;;;;;;;5132940;27;20667;-73
2021/01/23 14:35:23;;;;;;;7.50;4.87;;;;;;;;;;5134753;27;20451;-73
2021/01/23 14:37:56;;;;;;;9.93;5.10;;;;;;;;;;5116952;28;20451;-73
2021/01/23 14:40:26;;;;;;;9.40;5.43;;;;;;;;;;5117164;28;20539;-73
2021/01/23 14:42:55;;;;;;;8.37;5.20;;;;;;;;;;5128076;27;20454;-74
2021/01/23 14:45:25;;;;;;;10.43;6.30;;;;;;;;;;5138205;27;20607;-74
2021/01/23 14:47:56;;;;;;;11.33;6.50;;;;;;;;;;5132342;27;20454;-74
2021/01/23 14:50:32;;;;;;;11.30;6.40;;;;;;;;;;5136727;27;20543;-74